sensor_id;sensor_type;location;lat;lon;timestamp;pressure;altitude;pressure_sealevel;temperature;humidity
55171;BME280;41060;47.510;8.680;2023-02-04T00:00:02;98591.91;;;9.18;47.77
55171;BME280;41060;47.510;8.680;2023-02-04T00:02:29;98574.09;;;9.04;47.90
55171;BME280;41060;47.510;8.680;2023-02-04T00:04:56;98562.81;;;9.01;48.00
55171;BME280;41060;47.510;8.680;2023-02-04T00:07:23;98566.38;;;8.83;48.50
55171;BME280;41060;47.510;8.680;2023-02-04T00:09:50;98564.81;;;8.43;48.70
55171;BME280;41060;47.510;8.680;2023-02-04T00:12:18;98585.16;;;8.76;48.66
55171;BME280;41060;47.510;8.680;2023-02-04T00:14:45;98591.94;;;8.82;48.69
55171;BME280;41060;47.510;8.680;2023-02-04T00:17:11;98538.19;;;8.47;49.09
55171;BME280;41060;47.510;8.680;2023-02-04T00:19:39;98582.19;;;8.65;48.91
55171;BME280;41060;47.510;8.680;2023-02-04T00:22:05;98585.09;;;8.42;50.08
55171;BME280;41060;47.510;8.680;2023-02-04T00:24:33;98562.81;;;8.48;49.82
55171;BME280;41060;47.510;8.680;2023-02-04T00:27:00;98556.13;;;8.40;49.94
55171;BME280;41060;47.510;8.680;2023-02-04T00:29:28;98581.81;;;8.73;49.74
55171;BME280;41060;47.510;8.680;2023-02-04T00:31:55;98587.66;;;8.79;49.52
55171;BME280;41060;47.510;8.680;2023-02-04T00:34:22;98569.53;;;8.72;49.72
55171;BME280;41060;47.510;8.680;2023-02-04T00:36:49;98532.47;;;8.39;50.47
55171;BME280;41060;47.510;8.680;2023-02-04T00:39:16;98553.66;;;8.55;49.94
55171;BME280;41060;47.510;8.680;2023-02-04T00:41:43;98557.03;;;8.58;50.54
55171;BME280;41060;47.510;8.680;2023-02-04T00:44:09;98556.88;;;8.61;50.20
55171;BME280;41060;47.510;8.680;2023-02-04T00:46:39;98529.63;;;8.06;50.51
55171;BME280;41060;47.510;8.680;2023-02-04T00:49:07;98570.41;;;8.18;51.12
55171;BME280;41060;47.510;8.680;2023-02-04T00:51:36;98563.78;;;8.28;50.80
55171;BME280;41060;47.510;8.680;2023-02-04T00:54:03;98565.69;;;8.43;50.66
55171;BME280;41060;47.510;8.680;2023-02-04T00:56:31;98556.53;;;8.50;50.46
55171;BME280;41060;47.510;8.680;2023-02-04T00:58:57;98556.59;;;8.49;50.65
55171;BME280;41060;47.510;8.680;2023-02-04T01:01:24;98556.88;;;8.61;50.09
55171;BME280;41060;47.510;8.680;2023-02-04T01:03:52;98560.00;;;8.87;49.64
55171;BME280;41060;47.510;8.680;2023-02-04T01:06:19;98562.03;;;8.82;49.55
55171;BME280;41060;47.510;8.680;2023-02-04T01:08:45;98571.13;;;8.93;49.79
55171;BME280;41060;47.510;8.680;2023-02-04T01:11:13;98564.78;;;8.97;49.68
55171;BME280;41060;47.510;8.680;2023-02-04T01:13:39;98573.72;;;9.12;49.88
55171;BME280;41060;47.510;8.680;2023-02-04T01:16:06;98579.69;;;9.15;49.79
55171;BME280;41060;47.510;8.680;2023-02-04T01:18:33;98581.69;;;8.93;50.51
55171;BME280;41060;47.510;8.680;2023-02-04T01:21:01;98578.34;;;9.07;50.28
55171;BME280;41060;47.510;8.680;2023-02-04T01:23:27;98583.78;;;8.87;50.82
55171;BME280;41060;47.510;8.680;2023-02-04T01:25:55;98582.06;;;8.68;51.62
55171;BME280;41060;47.510;8.680;2023-02-04T01:28:22;98571.91;;;8.95;50.99
55171;BME280;41060;47.510;8.680;2023-02-04T01:30:49;98571.22;;;8.56;52.20
55171;BME280;41060;47.510;8.680;2023-02-04T01:33:16;98583.00;;;8.85;51.41
55171;BME280;41060;47.510;8.680;2023-02-04T01:35:44;98591.09;;;8.99;51.16
55171;BME280;41060;47.510;8.680;2023-02-04T01:38:12;98591.09;;;9.16;50.39
55171;BME280;41060;47.510;8.680;2023-02-04T01:40:40;98588.69;;;8.94;50.92
55171;BME280;41060;47.510;8.680;2023-02-04T01:43:07;98576.03;;;9.01;50.61
55171;BME280;41060;47.510;8.680;2023-02-04T01:45:34;98551.38;;;9.00;50.70
55171;BME280;41060;47.510;8.680;2023-02-04T01:48:03;98569.91;;;9.17;50.75
55171;BME280;41060;47.510;8.680;2023-02-04T01:50:32;98557.06;;;9.10;50.16
55171;BME280;41060;47.510;8.680;2023-02-04T01:52:59;98581.19;;;9.38;49.72
55171;BME280;41060;47.510;8.680;2023-02-04T01:55:30;98568.44;;;9.29;49.47
55171;BME280;41060;47.510;8.680;2023-02-04T01:57:58;98572.72;;;9.32;49.79
55171;BME280;41060;47.510;8.680;2023-02-04T02:00:26;98555.69;;;9.20;50.12
55171;BME280;41060;47.510;8.680;2023-02-04T02:02:54;98573.16;;;9.23;49.53
55171;BME280;41060;47.510;8.680;2023-02-04T02:05:24;98570.00;;;9.33;49.54
55171;BME280;41060;47.510;8.680;2023-02-04T02:07:53;98566.91;;;9.25;49.97
55171;BME280;41060;47.510;8.680;2023-02-04T02:10:21;98561.44;;;9.28;49.90
55171;BME280;41060;47.510;8.680;2023-02-04T02:12:50;98562.16;;;9.32;49.36
55171;BME280;41060;47.510;8.680;2023-02-04T02:15:17;98558.94;;;9.08;50.26
55171;BME280;41060;47.510;8.680;2023-02-04T02:17:45;98552.81;;;9.25;50.22
55171;BME280;41060;47.510;8.680;2023-02-04T02:20:13;98548.00;;;9.33;50.17
55171;BME280;41060;47.510;8.680;2023-02-04T02:22:46;98547.81;;;9.36;49.87
55171;BME280;41060;47.510;8.680;2023-02-04T02:25:17;98541.31;;;9.26;49.67
55171;BME280;41060;47.510;8.680;2023-02-04T02:27:44;98549.53;;;9.37;49.85
55171;BME280;41060;47.510;8.680;2023-02-04T02:30:13;98551.31;;;9.36;49.60
55171;BME280;41060;47.510;8.680;2023-02-04T02:32:42;98519.59;;;9.19;49.61
55171;BME280;41060;47.510;8.680;2023-02-04T02:35:10;98543.38;;;9.36;49.74
55171;BME280;41060;47.510;8.680;2023-02-04T02:37:36;98528.91;;;9.43;49.54
55171;BME280;41060;47.510;8.680;2023-02-04T02:40:05;98485.88;;;9.07;49.70
55171;BME280;41060;47.510;8.680;2023-02-04T02:42:34;98537.09;;;9.39;49.58
55171;BME280;41060;47.510;8.680;2023-02-04T02:45:02;98524.28;;;9.31;49.70
55171;BME280;41060;47.510;8.680;2023-02-04T02:47:32;98532.25;;;9.47;49.46
55171;BME280;41060;47.510;8.680;2023-02-04T02:49:59;98539.19;;;9.49;49.59
55171;BME280;41060;47.510;8.680;2023-02-04T02:52:25;98526.28;;;9.43;49.42
55171;BME280;41060;47.510;8.680;2023-02-04T02:54:57;98518.19;;;9.46;49.32
55171;BME280;41060;47.510;8.680;2023-02-04T02:57:26;98513.75;;;9.47;49.41
55171;BME280;41060;47.510;8.680;2023-02-04T02:59:54;98527.97;;;9.44;49.27
55171;BME280;41060;47.510;8.680;2023-02-04T03:02:24;98535.22;;;9.41;49.31
55171;BME280;41060;47.510;8.680;2023-02-04T03:04:54;98541.53;;;9.38;49.33
55171;BME280;41060;47.510;8.680;2023-02-04T03:07:23;98547.81;;;9.36;48.99
55171;BME280;41060;47.510;8.680;2023-02-04T03:09:50;98433.53;;;8.63;49.17
55171;BME280;41060;47.510;8.680;2023-02-04T03:12:18;98546.81;;;9.38;49.18
55171;BME280;41060;47.510;8.680;2023-02-04T03:14:45;98549.91;;;9.46;48.48
55171;BME280;41060;47.510;8.680;2023-02-04T03:17:13;98548.25;;;9.61;48.12
55171;BME280;41060;47.510;8.680;2023-02-04T03:19:40;98552.47;;;9.65;48.03
55171;BME280;41060;47.510;8.680;2023-02-04T03:22:08;98544.28;;;9.70;47.75
55171;BME280;41060;47.510;8.680;2023-02-04T03:24:35;98545.22;;;9.51;48.20
55171;BME280;41060;47.510;8.680;2023-02-04T03:27:02;98513.19;;;9.25;48.38
55171;BME280;41060;47.510;8.680;2023-02-04T03:29:30;98565.06;;;9.60;48.21
55171;BME280;41060;47.510;8.680;2023-02-04T03:31:57;98565.13;;;9.59;48.51
55171;BME280;41060;47.510;8.680;2023-02-04T03:34:25;98560.94;;;9.54;48.28
55171;BME280;41060;47.510;8.680;2023-02-04T03:36:52;98555.00;;;9.67;48.39
55171;BME280;41060;47.510;8.680;2023-02-04T03:39:19;98560.88;;;9.56;48.26
55171;BME280;41060;47.510;8.680;2023-02-04T03:41:45;98562.03;;;9.50;48.62
55171;BME280;41060;47.510;8.680;2023-02-04T03:44:13;98560.34;;;9.49;48.83
55171;BME280;41060;47.510;8.680;2023-02-04T03:46:39;98557.66;;;9.34;49.03
55171;BME280;41060;47.510;8.680;2023-02-04T03:49:08;98557.13;;;9.60;48.77
55171;BME280;41060;47.510;8.680;2023-02-04T03:51:36;98521.72;;;9.12;49.49
55171;BME280;41060;47.510;8.680;2023-02-04T03:54:03;98560.28;;;9.34;49.10
55171;BME280;41060;47.510;8.680;2023-02-04T03:56:29;98558.91;;;9.27;48.94
55171;BME280;41060;47.510;8.680;2023-02-04T03:58:56;98556.53;;;9.03;49.55
55171;BME280;41060;47.510;8.680;2023-02-04T04:01:23;98565.03;;;9.27;49.09
55171;BME280;41060;47.510;8.680;2023-02-04T04:03:49;98560.28;;;9.34;49.16
55171;BME280;41060;47.510;8.680;2023-02-04T04:06:17;98560.28;;;9.34;49.05
55171;BME280;41060;47.510;8.680;2023-02-04T04:08:45;98560.25;;;9.51;49.06
55171;BME280;41060;47.510;8.680;2023-02-04T04:11:11;98560.03;;;9.55;48.68
55171;BME280;41060;47.510;8.680;2023-02-04T04:13:38;98561.28;;;9.48;48.91
55171;BME280;41060;47.510;8.680;2023-02-04T04:16:05;98566.38;;;9.51;48.54
55171;BME280;41060;47.510;8.680;2023-02-04T04:18:33;98570.13;;;9.13;49.55
55171;BME280;41060;47.510;8.680;2023-02-04T04:21:01;98561.28;;;9.31;49.23
55171;BME280;41060;47.510;8.680;2023-02-04T04:23:27;98567.44;;;9.32;49.29
55171;BME280;41060;47.510;8.680;2023-02-04T04:25:55;98558.09;;;9.25;49.78
55171;BME280;41060;47.510;8.680;2023-02-04T04:28:22;98555.50;;;9.23;49.49
55171;BME280;41060;47.510;8.680;2023-02-04T04:30:49;98553.69;;;9.25;49.18
55171;BME280;41060;47.510;8.680;2023-02-04T04:33:15;98547.00;;;9.35;49.46
55171;BME280;41060;47.510;8.680;2023-02-04T04:35:42;98558.47;;;9.17;49.31
55171;BME280;41060;47.510;8.680;2023-02-04T04:38:09;98553.25;;;9.15;49.15
55171;BME280;41060;47.510;8.680;2023-02-04T04:40:36;98558.22;;;8.87;49.74
55171;BME280;41060;47.510;8.680;2023-02-04T04:43:04;98562.78;;;8.66;50.58
55171;BME280;41060;47.510;8.680;2023-02-04T04:45:30;98554.44;;;8.57;50.50
55171;BME280;41060;47.510;8.680;2023-02-04T04:48:00;98552.47;;;8.79;50.33
55171;BME280;41060;47.510;8.680;2023-02-04T04:50:27;98548.03;;;8.79;49.76
55171;BME280;41060;47.510;8.680;2023-02-04T04:52:54;98550.69;;;8.79;49.97
55171;BME280;41060;47.510;8.680;2023-02-04T04:55:20;98552.28;;;8.65;50.40
55171;BME280;41060;47.510;8.680;2023-02-04T04:57:48;98514.41;;;8.30;50.42
55171;BME280;41060;47.510;8.680;2023-02-04T05:00:17;98556.16;;;8.58;50.93
55171;BME280;41060;47.510;8.680;2023-02-04T05:02:45;98551.03;;;8.55;50.50
55171;BME280;41060;47.510;8.680;2023-02-04T05:05:12;98560.84;;;8.70;50.69
55171;BME280;41060;47.510;8.680;2023-02-04T05:07:39;98561.69;;;8.53;51.22
55171;BME280;41060;47.510;8.680;2023-02-04T05:10:06;98569.53;;;8.72;50.66
55171;BME280;41060;47.510;8.680;2023-02-04T05:12:33;98564.09;;;8.58;50.86
55171;BME280;41060;47.510;8.680;2023-02-04T05:14:59;98565.16;;;8.90;50.13
55171;BME280;41060;47.510;8.680;2023-02-04T05:17:27;98565.06;;;9.08;49.56
55171;BME280;41060;47.510;8.680;2023-02-04T05:19:55;98563.59;;;9.20;49.51
55171;BME280;41060;47.510;8.680;2023-02-04T05:22:21;98568.91;;;9.20;49.80
55171;BME280;41060;47.510;8.680;2023-02-04T05:24:48;98566.63;;;9.47;49.27
55171;BME280;41060;47.510;8.680;2023-02-04T05:27:15;98561.16;;;9.34;49.51
55171;BME280;41060;47.510;8.680;2023-02-04T05:29:41;98559.94;;;9.23;49.86
55171;BME280;41060;47.510;8.680;2023-02-04T05:32:08;98553.69;;;9.25;50.21
55171;BME280;41060;47.510;8.680;2023-02-04T05:34:36;98568.28;;;8.98;50.82
55171;BME280;41060;47.510;8.680;2023-02-04T05:37:03;98562.97;;;8.98;51.49
55171;BME280;41060;47.510;8.680;2023-02-04T05:39:29;98518.59;;;8.87;50.69
55171;BME280;41060;47.510;8.680;2023-02-04T05:41:57;98563.03;;;9.13;50.10
55171;BME280;41060;47.510;8.680;2023-02-04T05:44:23;98572.22;;;9.24;50.13
55171;BME280;41060;47.510;8.680;2023-02-04T05:46:51;98565.06;;;8.91;50.36
55171;BME280;41060;47.510;8.680;2023-02-04T05:49:18;98581.47;;;8.62;51.31
55171;BME280;41060;47.510;8.680;2023-02-04T05:51:47;98523.56;;;8.59;50.81
55171;BME280;41060;47.510;8.680;2023-02-04T05:54:13;98557.16;;;9.08;50.32
55171;BME280;41060;47.510;8.680;2023-02-04T05:56:44;98574.06;;;9.22;50.07
55171;BME280;41060;47.510;8.680;2023-02-04T05:59:11;98578.75;;;9.16;49.98
55171;BME280;41060;47.510;8.680;2023-02-04T06:01:38;98577.22;;;9.30;49.48
55171;BME280;41060;47.510;8.680;2023-02-04T06:04:05;98579.09;;;9.28;49.82
55171;BME280;41060;47.510;8.680;2023-02-04T06:06:31;98579.09;;;9.28;49.67
55171;BME280;41060;47.510;8.680;2023-02-04T06:08:59;98588.56;;;9.32;49.82
55171;BME280;41060;47.510;8.680;2023-02-04T06:11:27;98590.44;;;9.47;49.85
55171;BME280;41060;47.510;8.680;2023-02-04T06:13:53;98568.66;;;8.90;50.23
55171;BME280;41060;47.510;8.680;2023-02-04T06:16:20;98590.47;;;8.94;50.39
55171;BME280;41060;47.510;8.680;2023-02-04T06:18:50;98598.25;;;9.14;50.42
55171;BME280;41060;47.510;8.680;2023-02-04T06:21:16;98598.69;;;9.41;49.60
55171;BME280;41060;47.510;8.680;2023-02-04T06:23:43;98589.75;;;9.26;49.89
55171;BME280;41060;47.510;8.680;2023-02-04T06:26:11;98595.13;;;9.42;49.72
55171;BME280;41060;47.510;8.680;2023-02-04T06:28:38;98558.31;;;9.03;50.12
55171;BME280;41060;47.510;8.680;2023-02-04T06:31:05;98585.69;;;9.19;50.51
55171;BME280;41060;47.510;8.680;2023-02-04T06:33:34;98584.53;;;9.42;50.77
55171;BME280;41060;47.510;8.680;2023-02-04T06:36:00;98586.06;;;9.46;50.49
55171;BME280;41060;47.510;8.680;2023-02-04T06:38:27;98586.78;;;9.32;50.65
55171;BME280;41060;47.510;8.680;2023-02-04T06:40:54;98557.75;;;9.13;51.02
55171;BME280;41060;47.510;8.680;2023-02-04T06:43:22;98587.88;;;9.28;50.70
55171;BME280;41060;47.510;8.680;2023-02-04T06:45:49;98587.19;;;9.42;50.42
55171;BME280;41060;47.510;8.680;2023-02-04T06:48:17;98593.75;;;9.50;50.76
55171;BME280;41060;47.510;8.680;2023-02-04T06:50:43;98592.22;;;9.12;51.54
55171;BME280;41060;47.510;8.680;2023-02-04T06:53:10;98588.31;;;9.19;51.47
55171;BME280;41060;47.510;8.680;2023-02-04T06:55:37;98576.19;;;9.15;51.72
55171;BME280;41060;47.510;8.680;2023-02-04T06:58:04;98588.53;;;9.14;51.83
55171;BME280;41060;47.510;8.680;2023-02-04T07:00:32;98592.16;;;9.31;51.76
55171;BME280;41060;47.510;8.680;2023-02-04T07:02:59;98590.84;;;9.39;51.49
55171;BME280;41060;47.510;8.680;2023-02-04T07:05:25;98593.75;;;9.50;51.08
55171;BME280;41060;47.510;8.680;2023-02-04T07:07:52;98536.09;;;9.24;50.44
55171;BME280;41060;47.510;8.680;2023-02-04T07:10:19;98602.47;;;9.70;50.39
55171;BME280;41060;47.510;8.680;2023-02-04T07:12:46;98607.56;;;9.73;49.90
55171;BME280;41060;47.510;8.680;2023-02-04T07:15:12;98585.81;;;9.68;50.38
55171;BME280;41060;47.510;8.680;2023-02-04T07:17:41;98602.72;;;9.81;50.23
55171;BME280;41060;47.510;8.680;2023-02-04T07:20:09;98607.03;;;9.83;49.68
55171;BME280;41060;47.510;8.680;2023-02-04T07:22:36;98613.63;;;9.92;49.89
55171;BME280;41060;47.510;8.680;2023-02-04T07:25:03;98619.50;;;9.97;49.98
55171;BME280;41060;47.510;8.680;2023-02-04T07:27:30;98616.94;;;9.95;49.85
55171;BME280;41060;47.510;8.680;2023-02-04T07:29:56;98625.22;;;9.89;49.56
55171;BME280;41060;47.510;8.680;2023-02-04T07:32:23;98619.00;;;10.39;63.35
55171;BME280;41060;47.510;8.680;2023-02-04T07:34:53;98616.91;;;11.07;60.87
55171;BME280;41060;47.510;8.680;2023-02-04T07:37:22;98617.41;;;11.43;55.33
55171;BME280;41060;47.510;8.680;2023-02-04T07:39:49;98617.63;;;11.55;52.10
55171;BME280;41060;47.510;8.680;2023-02-04T07:42:15;98621.47;;;11.79;52.83
55171;BME280;41060;47.510;8.680;2023-02-04T07:44:42;98553.97;;;11.55;51.54
55171;BME280;41060;47.510;8.680;2023-02-04T07:47:09;98612.63;;;11.94;48.19
55171;BME280;41060;47.510;8.680;2023-02-04T07:49:36;98614.72;;;11.73;50.92
55171;BME280;41060;47.510;8.680;2023-02-04T07:52:05;98619.16;;;11.73;49.60
55171;BME280;41060;47.510;8.680;2023-02-04T07:54:32;98612.44;;;11.67;50.12
55171;BME280;41060;47.510;8.680;2023-02-04T07:56:58;98626.53;;;11.98;48.65
55171;BME280;41060;47.510;8.680;2023-02-04T07:59:25;98612.63;;;12.08;49.04
55171;BME280;41060;47.510;8.680;2023-02-04T08:01:52;98617.63;;;12.27;48.17
55171;BME280;41060;47.510;8.680;2023-02-04T08:04:18;98624.09;;;12.23;46.76
55171;BME280;41060;47.510;8.680;2023-02-04T08:06:45;98618.63;;;11.82;46.19
55171;BME280;41060;47.510;8.680;2023-02-04T08:09:13;98548.84;;;11.66;48.94
55171;BME280;41060;47.510;8.680;2023-02-04T08:11:40;98622.28;;;12.09;45.05
55171;BME280;41060;47.510;8.680;2023-02-04T08:14:09;98617.13;;;11.78;45.21
55171;BME280;41060;47.510;8.680;2023-02-04T08:16:39;98626.81;;;11.49;45.74
55171;BME280;41060;47.510;8.680;2023-02-04T08:19:05;98641.25;;;11.14;46.42
55171;BME280;41060;47.510;8.680;2023-02-04T08:21:32;98607.28;;;10.59;46.94
55171;BME280;41060;47.510;8.680;2023-02-04T08:23:59;98647.81;;;10.77;47.35
55171;BME280;41060;47.510;8.680;2023-02-04T08:26:27;98645.84;;;10.80;47.37
55171;BME280;41060;47.510;8.680;2023-02-04T08:28:54;98655.00;;;10.75;47.53
55171;BME280;41060;47.510;8.680;2023-02-04T08:31:21;98654.63;;;10.49;48.03
55171;BME280;41060;47.510;8.680;2023-02-04T08:33:47;98652.03;;;10.48;48.42
55171;BME280;41060;47.510;8.680;2023-02-04T08:36:14;98652.03;;;10.48;48.44
55171;BME280;41060;47.510;8.680;2023-02-04T08:38:41;98657.16;;;10.68;54.68
55171;BME280;41060;47.510;8.680;2023-02-04T08:41:08;98653.09;;;10.92;47.90
55171;BME280;41060;47.510;8.680;2023-02-04T08:43:36;98643.78;;;10.85;47.59
55171;BME280;41060;47.510;8.680;2023-02-04T08:46:06;98656.72;;;10.76;48.28
55171;BME280;41060;47.510;8.680;2023-02-04T08:48:34;98614.19;;;10.30;48.46
55171;BME280;41060;47.510;8.680;2023-02-04T08:51:01;98649.06;;;10.38;49.14
55171;BME280;41060;47.510;8.680;2023-02-04T08:53:28;98641.00;;;10.40;49.13
55171;BME280;41060;47.510;8.680;2023-02-04T08:55:55;98647.78;;;10.45;48.92
55171;BME280;41060;47.510;8.680;2023-02-04T08:58:21;98651.72;;;10.38;49.44
55171;BME280;41060;47.510;8.680;2023-02-04T09:00:50;98650.34;;;10.31;49.71
55171;BME280;41060;47.510;8.680;2023-02-04T09:03:16;98658.34;;;10.29;49.54
55171;BME280;41060;47.510;8.680;2023-02-04T09:05:43;98638.16;;;9.78;50.77
55171;BME280;41060;47.510;8.680;2023-02-04T09:08:10;98670.44;;;10.02;50.02
55171;BME280;41060;47.510;8.680;2023-02-04T09:10:37;98667.00;;;10.00;50.15
55171;BME280;41060;47.510;8.680;2023-02-04T09:13:03;98663.72;;;9.95;50.40
55171;BME280;41060;47.510;8.680;2023-02-04T09:15:30;98676.25;;;10.09;50.46
55171;BME280;41060;47.510;8.680;2023-02-04T09:17:58;98671.69;;;10.11;50.49
55171;BME280;41060;47.510;8.680;2023-02-04T09:20:38;98673.28;;;9.98;51.72
55171;BME280;41060;47.510;8.680;2023-02-04T09:23:05;98680.69;;;10.08;51.07
55171;BME280;41060;47.510;8.680;2023-02-04T09:25:33;98680.69;;;10.08;50.80
55171;BME280;41060;47.510;8.680;2023-02-04T09:28:00;98668.75;;;10.17;50.81
55171;BME280;41060;47.510;8.680;2023-02-04T09:30:27;98676.44;;;10.21;50.77
55171;BME280;41060;47.510;8.680;2023-02-04T09:32:53;98679.28;;;10.01;51.90
55171;BME280;41060;47.510;8.680;2023-02-04T09:35:22;98674.28;;;10.12;51.48
55171;BME280;41060;47.510;8.680;2023-02-04T09:37:48;98676.53;;;10.03;50.71
55171;BME280;41060;47.510;8.680;2023-02-04T09:40:16;98684.19;;;10.09;50.79
55171;BME280;41060;47.510;8.680;2023-02-04T09:42:49;98681.88;;;10.18;51.14
55171;BME280;41060;47.510;8.680;2023-02-04T09:45:17;98680.94;;;10.19;50.92
55171;BME280;41060;47.510;8.680;2023-02-04T09:47:45;98684.13;;;10.26;50.32
55171;BME280;41060;47.510;8.680;2023-02-04T09:50:14;98686.88;;;10.24;51.15
55171;BME280;41060;47.510;8.680;2023-02-04T09:52:42;98691.94;;;10.45;50.48
55171;BME280;41060;47.510;8.680;2023-02-04T09:55:12;98686.84;;;10.57;50.15
55171;BME280;41060;47.510;8.680;2023-02-04T09:57:39;98692.97;;;10.75;49.55
55171;BME280;41060;47.510;8.680;2023-02-04T10:00:13;98661.66;;;10.66;49.58
55171;BME280;41060;47.510;8.680;2023-02-04T10:02:41;98701.34;;;10.83;49.48
55171;BME280;41060;47.510;8.680;2023-02-04T10:05:12;98704.31;;;10.77;49.96
55171;BME280;41060;47.510;8.680;2023-02-04T10:07:39;98666.13;;;10.32;50.20
55171;BME280;41060;47.510;8.680;2023-02-04T10:10:14;98699.97;;;10.43;49.74
55171;BME280;41060;47.510;8.680;2023-02-04T10:12:42;98702.72;;;10.57;50.08
55171;BME280;41060;47.510;8.680;2023-02-04T10:15:13;98701.69;;;10.44;50.54
55171;BME280;41060;47.510;8.680;2023-02-04T10:17:40;98710.97;;;10.36;50.84
55171;BME280;41060;47.510;8.680;2023-02-04T10:20:12;98717.88;;;10.22;51.14
55171;BME280;41060;47.510;8.680;2023-02-04T10:22:39;98724.56;;;10.12;51.33
55171;BME280;41060;47.510;8.680;2023-02-04T10:25:12;98717.53;;;10.28;51.24
55171;BME280;41060;47.510;8.680;2023-02-04T10:27:46;98715.75;;;10.29;51.26
55171;BME280;41060;47.510;8.680;2023-02-04T10:30:17;98711.22;;;10.31;51.10
55171;BME280;41060;47.510;8.680;2023-02-04T10:32:45;98714.00;;;10.45;50.83
55171;BME280;41060;47.510;8.680;2023-02-04T10:35:14;98714.81;;;10.30;51.75
55171;BME280;41060;47.510;8.680;2023-02-04T10:37:41;98719.38;;;9.59;54.09
55171;BME280;41060;47.510;8.680;2023-02-04T10:40:26;98724.66;;;9.42;54.94
55171;BME280;41060;47.510;8.680;2023-02-04T10:42:56;98697.69;;;9.16;55.89
55171;BME280;41060;47.510;8.680;2023-02-04T10:45:24;98723.06;;;9.02;56.41
55171;BME280;41060;47.510;8.680;2023-02-04T10:47:53;98691.84;;;9.10;56.09
55171;BME280;41060;47.510;8.680;2023-02-04T10:50:21;98703.19;;;9.12;56.13
55171;BME280;41060;47.510;8.680;2023-02-04T10:52:51;98712.03;;;9.30;55.77
55171;BME280;41060;47.510;8.680;2023-02-04T10:55:21;98699.06;;;9.25;56.12
55171;BME280;41060;47.510;8.680;2023-02-04T10:57:50;98702.72;;;9.40;55.44
55171;BME280;41060;47.510;8.680;2023-02-04T11:00:19;98671.94;;;9.03;55.74
55171;BME280;41060;47.510;8.680;2023-02-04T11:02:50;98678.38;;;9.14;55.83
55171;BME280;41060;47.510;8.680;2023-02-04T11:05:19;98703.03;;;9.34;55.43
55171;BME280;41060;47.510;8.680;2023-02-04T11:07:47;98639.69;;;8.77;55.40
55171;BME280;41060;47.510;8.680;2023-02-04T11:10:15;98710.72;;;9.02;56.06
55171;BME280;41060;47.510;8.680;2023-02-04T11:12:45;98710.41;;;9.08;55.95
55171;BME280;41060;47.510;8.680;2023-02-04T11:15:45;98712.53;;;9.19;55.76
55171;BME280;41060;47.510;8.680;2023-02-04T11:18:25;98708.41;;;9.32;55.24
55171;BME280;41060;47.510;8.680;2023-02-04T11:20:58;98707.78;;;9.27;55.34
55171;BME280;41060;47.510;8.680;2023-02-04T11:23:29;98707.84;;;9.26;55.04
55171;BME280;41060;47.510;8.680;2023-02-04T11:26:05;98709.00;;;9.37;54.40
55171;BME280;41060;47.510;8.680;2023-02-04T11:28:48;98707.78;;;9.62;54.09
55171;BME280;41060;47.510;8.680;2023-02-04T11:31:49;98694.25;;;9.50;53.50
55171;BME280;41060;47.510;8.680;2023-02-04T11:34:30;98720.63;;;9.52;53.48
55171;BME280;41060;47.510;8.680;2023-02-04T11:37:05;98679.63;;;9.26;53.55
55171;BME280;41060;47.510;8.680;2023-02-04T11:39:36;98680.91;;;9.17;53.85
55171;BME280;41060;47.510;8.680;2023-02-04T11:42:04;98675.75;;;9.33;53.68
55171;BME280;41060;47.510;8.680;2023-02-04T11:44:31;98700.97;;;9.58;53.08
55171;BME280;41060;47.510;8.680;2023-02-04T11:47:01;98702.38;;;9.65;53.47
55171;BME280;41060;47.510;8.680;2023-02-04T11:49:35;98699.69;;;9.82;53.45
55171;BME280;41060;47.510;8.680;2023-02-04T11:52:04;98701.84;;;10.08;51.54
55171;BME280;41060;47.510;8.680;2023-02-04T11:54:33;98699.88;;;10.12;51.40
55171;BME280;41060;47.510;8.680;2023-02-04T11:57:01;98704.38;;;9.94;51.16
55171;BME280;41060;47.510;8.680;2023-02-04T11:59:28;98710.88;;;10.04;51.08
55171;BME280;41060;47.510;8.680;2023-02-04T12:02:04;98706.38;;;10.06;50.76
55171;BME280;41060;47.510;8.680;2023-02-04T12:04:32;98622.09;;;9.48;50.89
55171;BME280;41060;47.510;8.680;2023-02-04T12:07:01;98718.00;;;9.86;50.81
55171;BME280;41060;47.510;8.680;2023-02-04T12:09:29;98719.53;;;9.90;51.67
55171;BME280;41060;47.510;8.680;2023-02-04T12:12:01;98718.66;;;10.07;51.33
55171;BME280;41060;47.510;8.680;2023-02-04T12:14:30;98725.28;;;10.16;55.38
55171;BME280;41060;47.510;8.680;2023-02-04T12:16:57;98675.88;;;10.48;53.52
55171;BME280;41060;47.510;8.680;2023-02-04T12:19:26;98675.00;;;10.80;51.75
55171;BME280;41060;47.510;8.680;2023-02-04T12:21:53;98713.03;;;10.79;48.36
55171;BME280;41060;47.510;8.680;2023-02-04T12:24:20;98716.03;;;10.89;48.68
55171;BME280;41060;47.510;8.680;2023-02-04T12:26:47;98712.69;;;10.69;48.93
55171;BME280;41060;47.510;8.680;2023-02-04T12:29:13;98716.13;;;10.54;49.05
55171;BME280;41060;47.510;8.680;2023-02-04T12:31:41;98715.97;;;10.57;48.61
55171;BME280;41060;47.510;8.680;2023-02-04T12:34:07;98716.69;;;10.77;48.73
55171;BME280;41060;47.510;8.680;2023-02-04T12:36:35;98714.66;;;10.66;47.96
55171;BME280;41060;47.510;8.680;2023-02-04T12:39:03;98630.91;;;10.15;48.65
55171;BME280;41060;47.510;8.680;2023-02-04T12:41:29;98651.94;;;10.33;48.32
55171;BME280;41060;47.510;8.680;2023-02-04T12:43:56;98696.47;;;10.76;48.17
55171;BME280;41060;47.510;8.680;2023-02-04T12:46:23;98699.53;;;10.84;47.59
55171;BME280;41060;47.510;8.680;2023-02-04T12:48:49;98689.69;;;11.01;46.73
55171;BME280;41060;47.510;8.680;2023-02-04T12:51:16;98520.50;;;10.01;47.24
55171;BME280;41060;47.510;8.680;2023-02-04T12:53:47;98672.06;;;10.69;46.63
55171;BME280;41060;47.510;8.680;2023-02-04T12:56:14;98713.63;;;10.84;47.55
55171;BME280;41060;47.510;8.680;2023-02-04T12:58:40;98706.28;;;10.89;46.94
55171;BME280;41060;47.510;8.680;2023-02-04T13:01:08;98701.56;;;10.63;47.45
55171;BME280;41060;47.510;8.680;2023-02-04T13:03:34;98709.09;;;10.86;47.76
55171;BME280;41060;47.510;8.680;2023-02-04T13:06:01;98658.00;;;10.36;46.18
55171;BME280;41060;47.510;8.680;2023-02-04T13:08:31;98716.47;;;10.81;46.64
55171;BME280;41060;47.510;8.680;2023-02-04T13:10:58;98715.44;;;10.68;47.10